sensor_id;sensor_type;location;lat;lon;timestamp;pressure;altitude;pressure_sealevel;temperature;humidity
43818;BME280;29868;47.360;18.984;2022-12-10T00:01:03;98702.50;;;7.61;100.00
43818;BME280;29868;47.360;18.984;2022-12-10T00:03:28;98707.69;;;7.59;100.00
43818;BME280;29868;47.360;18.984;2022-12-10T00:05:53;98716.28;;;7.49;100.00
43818;BME280;29868;47.360;18.984;2022-12-10T00:08:18;98714.56;;;7.54;100.00
43818;BME280;29868;47.360;18.984;2022-12-10T00:10:44;98716.28;;;7.50;100.00
43818;BME280;29868;47.360;18.984;2022-12-10T00:13:09;98729.19;;;7.53;100.00
43818;BME280;29868;47.360;18.984;2022-12-10T00:15:34;98725.75;;;7.44;100.00
43818;BME280;29868;47.360;18.984;2022-12-10T00:18:00;98730.03;;;7.45;100.00
43818;BME280;29868;47.360;18.984;2022-12-10T00:20:25;98731.78;;;7.47;100.00
43818;BME280;29868;47.360;18.984;2022-12-10T00:22:50;98724.88;;;7.40;100.00
43818;BME280;29868;47.360;18.984;2022-12-10T00:25:16;98730.91;;;7.41;100.00
43818;BME280;29868;47.360;18.984;2022-12-10T00:27:41;98732.63;;;7.43;100.00
43818;BME280;29868;47.360;18.984;2022-12-10T00:30:07;98742.94;;;7.42;100.00
43818;BME280;29868;47.360;18.984;2022-12-10T00:32:32;98729.22;;;7.50;100.00
43818;BME280;29868;47.360;18.984;2022-12-10T00:34:57;98725.78;;;7.62;100.00
43818;BME280;29868;47.360;18.984;2022-12-10T00:37:23;98735.22;;;7.49;100.00
43818;BME280;29868;47.360;18.984;2022-12-10T00:39:48;98737.78;;;7.45;100.00
43818;BME280;29868;47.360;18.984;2022-12-10T00:42:13;98738.66;;;7.39;100.00
43818;BME280;29868;47.360;18.984;2022-12-10T00:44:38;98754.16;;;7.44;100.00
43818;BME280;29868;47.360;18.984;2022-12-10T00:47:04;98758.47;;;7.43;100.00
43818;BME280;29868;47.360;18.984;2022-12-10T00:49:29;98759.28;;;7.30;100.00
43818;BME280;29868;47.360;18.984;2022-12-10T00:51:54;98767.06;;;7.36;100.00
43818;BME280;29868;47.360;18.984;2022-12-10T00:54:19;98761.91;;;7.41;100.00
43818;BME280;29868;47.360;18.984;2022-12-10T00:56:44;98773.06;;;7.30;100.00
43818;BME280;29868;47.360;18.984;2022-12-10T00:59:10;98772.22;;;7.33;100.00
43818;BME280;29868;47.360;18.984;2022-12-10T01:01:36;98768.78;;;7.36;100.00
43818;BME280;29868;47.360;18.984;2022-12-10T01:04:04;98780.81;;;7.38;100.00
43818;BME280;29868;47.360;18.984;2022-12-10T01:06:33;98772.25;;;7.39;100.00
43818;BME280;29868;47.360;18.984;2022-12-10T01:08:59;98776.53;;;7.40;100.00
43818;BME280;29868;47.360;18.984;2022-12-10T01:11:26;98784.28;;;7.42;100.00
43818;BME280;29868;47.360;18.984;2022-12-10T01:13:52;98783.44;;;7.40;100.00
43818;BME280;29868;47.360;18.984;2022-12-10T01:16:18;98780.88;;;7.56;100.00
43818;BME280;29868;47.360;18.984;2022-12-10T01:18:44;98792.09;;;7.54;100.00
43818;BME280;29868;47.360;18.984;2022-12-10T01:21:11;98791.19;;;7.53;100.00
43818;BME280;29868;47.360;18.984;2022-12-10T01:23:38;98787.75;;;7.48;100.00
43818;BME280;29868;47.360;18.984;2022-12-10T01:26:05;98784.34;;;7.59;100.00
43818;BME280;29868;47.360;18.984;2022-12-10T01:28:31;98789.50;;;7.60;100.00
43818;BME280;29868;47.360;18.984;2022-12-10T01:30:59;98786.91;;;7.57;100.00
43818;BME280;29868;47.360;18.984;2022-12-10T01:33:24;98794.66;;;7.52;100.00
43818;BME280;29868;47.360;18.984;2022-12-10T01:35:50;98795.53;;;7.59;100.00
43818;BME280;29868;47.360;18.984;2022-12-10T01:38:15;98787.78;;;7.62;100.00
43818;BME280;29868;47.360;18.984;2022-12-10T01:40:40;98790.41;;;7.65;100.00
43818;BME280;29868;47.360;18.984;2022-12-10T01:43:05;98790.38;;;7.64;100.00
43818;BME280;29868;47.360;18.984;2022-12-10T01:45:31;98786.09;;;7.66;100.00
43818;BME280;29868;47.360;18.984;2022-12-10T01:47:56;98789.53;;;7.66;100.00
43818;BME280;29868;47.360;18.984;2022-12-10T01:50:21;98799.88;;;7.69;100.00
43818;BME280;29868;47.360;18.984;2022-12-10T01:52:47;98804.19;;;7.75;100.00
43818;BME280;29868;47.360;18.984;2022-12-10T01:57:56;98793.84;;;7.73;100.00
43818;BME280;29868;47.360;18.984;2022-12-10T02:00:21;98798.16;;;7.84;100.00
43818;BME280;29868;47.360;18.984;2022-12-10T02:02:51;98799.03;;;7.83;100.00
43818;BME280;29868;47.360;18.984;2022-12-10T02:05:30;98805.06;;;7.83;100.00
43818;BME280;29868;47.360;18.984;2022-12-10T02:10:25;98810.22;;;7.83;100.00
43818;BME280;29868;47.360;18.984;2022-12-10T02:12:58;98816.28;;;7.90;100.00
43818;BME280;29868;47.360;18.984;2022-12-10T02:15:27;98818.88;;;7.93;100.00
43818;BME280;29868;47.360;18.984;2022-12-10T02:20:21;98811.09;;;7.80;100.00
43818;BME280;29868;47.360;18.984;2022-12-10T02:22:49;98808.50;;;7.85;100.00
43818;BME280;29868;47.360;18.984;2022-12-10T02:25:15;98809.34;;;7.73;100.00
43818;BME280;29868;47.360;18.984;2022-12-10T02:27:44;98813.66;;;7.71;100.00
43818;BME280;29868;47.360;18.984;2022-12-10T02:30:12;98803.31;;;7.71;100.00
43818;BME280;29868;47.360;18.984;2022-12-10T02:32:38;98805.84;;;7.56;100.00
43818;BME280;29868;47.360;18.984;2022-12-10T02:35:08;98820.50;;;7.59;100.00
43818;BME280;29868;47.360;18.984;2022-12-10T02:37:36;98817.94;;;7.62;100.00
43818;BME280;29868;47.360;18.984;2022-12-10T02:40:05;98815.28;;;7.45;100.00
43818;BME280;29868;47.360;18.984;2022-12-10T02:42:32;98813.59;;;7.48;100.00
43818;BME280;29868;47.360;18.984;2022-12-10T02:44:58;98817.03;;;7.43;100.00
43818;BME280;29868;47.360;18.984;2022-12-10T02:47:24;98810.09;;;7.37;100.00
43818;BME280;29868;47.360;18.984;2022-12-10T02:49:51;98810.94;;;7.30;100.00
43818;BME280;29868;47.360;18.984;2022-12-10T02:52:18;98810.97;;;7.36;100.00
43818;BME280;29868;47.360;18.984;2022-12-10T02:54:47;98817.03;;;7.44;100.00
43818;BME280;29868;47.360;18.984;2022-12-10T02:59:56;98830.75;;;7.32;100.00
43818;BME280;29868;47.360;18.984;2022-12-10T03:02:46;98835.06;;;7.34;100.00
43818;BME280;29868;47.360;18.984;2022-12-10T03:05:20;98843.69;;;7.40;100.00
43818;BME280;29868;47.360;18.984;2022-12-10T03:07:49;98847.09;;;7.33;100.00
43818;BME280;29868;47.360;18.984;2022-12-10T03:10:20;98850.53;;;7.24;100.00
43818;BME280;29868;47.360;18.984;2022-12-10T03:12:50;98848.81;;;7.28;100.00
43818;BME280;29868;47.360;18.984;2022-12-10T03:15:17;98854.84;;;7.24;100.00
43818;BME280;29868;47.360;18.984;2022-12-10T03:17:44;98854.78;;;7.18;100.00
43818;BME280;29868;47.360;18.984;2022-12-10T03:20:11;98848.75;;;7.16;100.00
43818;BME280;29868;47.360;18.984;2022-12-10T03:22:38;98847.88;;;7.15;100.00
43818;BME280;29868;47.360;18.984;2022-12-10T03:25:04;98854.84;;;7.24;100.00
43818;BME280;29868;47.360;18.984;2022-12-10T03:27:30;98858.31;;;7.35;100.00
43818;BME280;29868;47.360;18.984;2022-12-10T03:29:56;98857.38;;;7.19;100.00
43818;BME280;29868;47.360;18.984;2022-12-10T03:32:24;98845.19;;;6.94;100.00
43818;BME280;29868;47.360;18.984;2022-12-10T03:34:50;98849.53;;;6.98;100.00
43818;BME280;29868;47.360;18.984;2022-12-10T03:37:16;98842.59;;;6.92;100.00
43818;BME280;29868;47.360;18.984;2022-12-10T03:39:42;98842.56;;;6.86;100.00
43818;BME280;29868;47.360;18.984;2022-12-10T03:42:07;98854.56;;;6.81;100.00
43818;BME280;29868;47.360;18.984;2022-12-10T03:44:33;98860.59;;;6.81;100.00
43818;BME280;29868;47.360;18.984;2022-12-10T03:46:59;98864.88;;;6.78;100.00
43818;BME280;29868;47.360;18.984;2022-12-10T03:49:25;98870.84;;;6.68;100.00
43818;BME280;29868;47.360;18.984;2022-12-10T03:51:50;98882.03;;;6.73;100.00
43818;BME280;29868;47.360;18.984;2022-12-10T03:54:15;98876.06;;;6.77;100.00
43818;BME280;29868;47.360;18.984;2022-12-10T03:56:41;98875.94;;;6.62;100.00
43818;BME280;29868;47.360;18.984;2022-12-10T03:59:06;98883.75;;;6.74;100.00
43818;BME280;29868;47.360;18.984;2022-12-10T04:01:31;98881.06;;;6.55;100.00
43818;BME280;29868;47.360;18.984;2022-12-10T04:03:57;98880.22;;;6.56;100.00
43818;BME280;29868;47.360;18.984;2022-12-10T04:06:22;98879.34;;;6.59;100.00
43818;BME280;29868;47.360;18.984;2022-12-10T04:08:47;98890.50;;;6.53;100.00
43818;BME280;29868;47.360;18.984;2022-12-10T04:11:13;98889.59;;;6.51;100.00
43818;BME280;29868;47.360;18.984;2022-12-10T04:13:39;98894.75;;;6.50;100.00
43818;BME280;29868;47.360;18.984;2022-12-10T04:16:23;98892.16;;;6.45;100.00
43818;BME280;29868;47.360;18.984;2022-12-10T04:18:52;98887.03;;;6.48;100.00
43818;BME280;29868;47.360;18.984;2022-12-10T04:21:17;98882.69;;;6.44;100.00
43818;BME280;29868;47.360;18.984;2022-12-10T04:24:01;98875.69;;;6.29;100.00
43818;BME280;29868;47.360;18.984;2022-12-10T04:26:45;98882.56;;;6.30;100.00
43818;BME280;29868;47.360;18.984;2022-12-10T04:29:24;98884.31;;;6.34;100.00
43818;BME280;29868;47.360;18.984;2022-12-10T04:31:50;98888.66;;;6.37;100.00
43818;BME280;29868;47.360;18.984;2022-12-10T04:34:15;98892.13;;;6.41;100.00
43818;BME280;29868;47.360;18.984;2022-12-10T04:36:41;98895.56;;;6.41;100.00
43818;BME280;29868;47.360;18.984;2022-12-10T04:39:06;98892.13;;;6.42;100.00
43818;BME280;29868;47.360;18.984;2022-12-10T04:41:32;98881.78;;;6.38;100.00
43818;BME280;29868;47.360;18.984;2022-12-10T04:43:57;98879.13;;;6.31;100.00
43818;BME280;29868;47.360;18.984;2022-12-10T04:46:22;98873.94;;;6.27;100.00
43818;BME280;29868;47.360;18.984;2022-12-10T04:48:48;98885.19;;;6.33;100.00
43818;BME280;29868;47.360;18.984;2022-12-10T04:51:13;98886.00;;;6.31;100.00
43818;BME280;29868;47.360;18.984;2022-12-10T04:53:38;98872.97;;;6.16;100.00
43818;BME280;29868;47.360;18.984;2022-12-10T04:56:04;98876.44;;;6.21;100.00
43818;BME280;29868;47.360;18.984;2022-12-10T04:58:30;98886.75;;;6.18;100.00
43818;BME280;29868;47.360;18.984;2022-12-10T05:01:05;98890.25;;;6.26;100.00
43818;BME280;29868;47.360;18.984;2022-12-10T05:03:31;98892.88;;;6.29;100.00
43818;BME280;29868;47.360;18.984;2022-12-10T05:06:00;98893.66;;;6.25;100.00
43818;BME280;29868;47.360;18.984;2022-12-10T05:08:26;98901.41;;;6.25;100.00
43818;BME280;29868;47.360;18.984;2022-12-10T05:10:51;98904.06;;;6.31;100.00
43818;BME280;29868;47.360;18.984;2022-12-10T05:13:16;98917.84;;;6.36;100.00
43818;BME280;29868;47.360;18.984;2022-12-10T05:15:41;98922.97;;;6.30;100.00
43818;BME280;29868;47.360;18.984;2022-12-10T05:18:06;98922.97;;;6.30;100.00
43818;BME280;29868;47.360;18.984;2022-12-10T05:20:32;98925.59;;;6.34;100.00
43818;BME280;29868;47.360;18.984;2022-12-10T05:22:57;98935.81;;;6.27;100.00
43818;BME280;29868;47.360;18.984;2022-12-10T05:25:40;98931.53;;;6.26;100.00
43818;BME280;29868;47.360;18.984;2022-12-10T05:28:19;98922.09;;;6.32;100.00
43818;BME280;29868;47.360;18.984;2022-12-10T05:30:44;98926.38;;;6.26;100.00
43818;BME280;29868;47.360;18.984;2022-12-10T05:33:09;98932.31;;;6.20;100.00
43818;BME280;29868;47.360;18.984;2022-12-10T05:35:35;98928.91;;;6.21;100.00
43818;BME280;29868;47.360;18.984;2022-12-10T05:38:00;98913.41;;;6.18;100.00
43818;BME280;29868;47.360;18.984;2022-12-10T05:40:25;98911.59;;;6.13;100.00
43818;BME280;29868;47.360;18.984;2022-12-10T05:42:50;98915.88;;;6.07;100.00
43818;BME280;29868;47.360;18.984;2022-12-10T05:45:16;98922.78;;;6.12;100.00
43818;BME280;29868;47.360;18.984;2022-12-10T05:47:41;98927.84;;;6.02;100.00
43818;BME280;29868;47.360;18.984;2022-12-10T05:50:06;98925.28;;;6.02;100.00
43818;BME280;29868;47.360;18.984;2022-12-10T05:52:31;98927.84;;;6.02;100.00
43818;BME280;29868;47.360;18.984;2022-12-10T05:54:57;98920.03;;;5.98;100.00
43818;BME280;29868;47.360;18.984;2022-12-10T05:57:22;98925.28;;;6.04;100.00
43818;BME280;29868;47.360;18.984;2022-12-10T05:59:47;98931.19;;;5.95;100.00
43818;BME280;29868;47.360;18.984;2022-12-10T06:02:13;98940.69;;;5.99;100.00
43818;BME280;29868;47.360;18.984;2022-12-10T06:04:38;98944.09;;;5.97;100.00
43818;BME280;29868;47.360;18.984;2022-12-10T06:07:03;98944.88;;;5.91;100.00
43818;BME280;29868;47.360;18.984;2022-12-10T06:09:28;98945.00;;;6.00;100.00
43818;BME280;29868;47.360;18.984;2022-12-10T06:11:54;98945.81;;;5.98;100.00
43818;BME280;29868;47.360;18.984;2022-12-10T06:14:19;98947.53;;;5.97;100.00
43818;BME280;29868;47.360;18.984;2022-12-10T06:16:44;98944.84;;;5.90;100.00
43818;BME280;29868;47.360;18.984;2022-12-10T06:19:10;98947.53;;;5.97;100.00
43818;BME280;29868;47.360;18.984;2022-12-10T06:21:35;98968.28;;;6.08;100.00
43818;BME280;29868;47.360;18.984;2022-12-10T06:24:00;98961.38;;;6.05;100.00
43818;BME280;29868;47.360;18.984;2022-12-10T06:26:25;98974.28;;;6.08;100.00
43818;BME280;29868;47.360;18.984;2022-12-10T06:28:51;98967.34;;;6.01;100.00
43818;BME280;29868;47.360;18.984;2022-12-10T06:31:16;98964.72;;;5.97;100.00
43818;BME280;29868;47.360;18.984;2022-12-10T06:33:42;98976.75;;;5.96;100.00
43818;BME280;29868;47.360;18.984;2022-12-10T06:36:08;98983.31;;;5.74;100.00
43818;BME280;29868;47.360;18.984;2022-12-10T06:38:34;98987.50;;;5.68;100.00
43818;BME280;29868;47.360;18.984;2022-12-10T06:40:59;98975.59;;;5.76;100.00
43818;BME280;29868;47.360;18.984;2022-12-10T06:43:27;98981.69;;;5.82;100.00
43818;BME280;29868;47.360;18.984;2022-12-10T06:45:53;98977.59;;;5.95;100.00
43818;BME280;29868;47.360;18.984;2022-12-10T06:48:18;98984.44;;;5.93;100.00
43818;BME280;29868;47.360;18.984;2022-12-10T06:50:43;98984.44;;;5.93;100.00
43818;BME280;29868;47.360;18.984;2022-12-10T06:53:09;98988.66;;;5.90;100.00
43818;BME280;29868;47.360;18.984;2022-12-10T06:55:35;98981.63;;;5.78;100.00
43818;BME280;29868;47.360;18.984;2022-12-10T06:58:01;98978.19;;;5.76;100.00
43818;BME280;29868;47.360;18.984;2022-12-10T07:00:26;98969.59;;;5.78;100.00
43818;BME280;29868;47.360;18.984;2022-12-10T07:02:51;98954.94;;;5.73;100.00
43818;BME280;29868;47.360;18.984;2022-12-10T07:05:16;98955.00;;;5.79;100.00
43818;BME280;29868;47.360;18.984;2022-12-10T07:07:41;98959.97;;;5.62;100.00
43818;BME280;29868;47.360;18.984;2022-12-10T07:10:07;98968.56;;;5.63;100.00
43818;BME280;29868;47.360;18.984;2022-12-10T07:12:33;98971.88;;;5.55;100.00
43818;BME280;29868;47.360;18.984;2022-12-10T07:14:58;98979.66;;;5.60;100.00
43818;BME280;29868;47.360;18.984;2022-12-10T07:17:23;98965.03;;;5.56;100.00
43818;BME280;29868;47.360;18.984;2022-12-10T07:19:48;98943.41;;;5.45;100.00
43818;BME280;29868;47.360;18.984;2022-12-10T07:22:14;98939.06;;;5.41;100.00
43818;BME280;29868;47.360;18.984;2022-12-10T07:24:39;98952.09;;;5.53;100.00
43818;BME280;29868;47.360;18.984;2022-12-10T07:27:05;98943.50;;;5.51;100.00
43818;BME280;29868;47.360;18.984;2022-12-10T07:29:30;98933.19;;;5.49;100.00
43818;BME280;29868;47.360;18.984;2022-12-10T07:31:55;98934.88;;;5.47;100.00
43818;BME280;29868;47.360;18.984;2022-12-10T07:34:20;98939.31;;;5.57;100.00
43818;BME280;29868;47.360;18.984;2022-12-10T07:36:46;98934.03;;;5.48;100.00
43818;BME280;29868;47.360;18.984;2022-12-10T07:39:12;98941.03;;;5.60;100.00
43818;BME280;29868;47.360;18.984;2022-12-10T07:41:42;98956.25;;;5.42;100.00
43818;BME280;29868;47.360;18.984;2022-12-10T07:44:09;98964.88;;;5.45;100.00
43818;BME280;29868;47.360;18.984;2022-12-10T07:46:35;98973.44;;;5.44;100.00
43818;BME280;29868;47.360;18.984;2022-12-10T07:49:01;98988.09;;;5.47;100.00
43818;BME280;29868;47.360;18.984;2022-12-10T07:51:26;98988.00;;;5.41;100.00
43818;BME280;29868;47.360;18.984;2022-12-10T07:53:52;98991.47;;;5.43;100.00
43818;BME280;29868;47.360;18.984;2022-12-10T07:56:18;98992.34;;;5.43;100.00
43818;BME280;29868;47.360;18.984;2022-12-10T07:58:44;98981.13;;;5.41;100.00
43818;BME280;29868;47.360;18.984;2022-12-10T08:01:11;98969.28;;;5.52;100.00
43818;BME280;29868;47.360;18.984;2022-12-10T08:03:36;98967.66;;;5.60;100.00
43818;BME280;29868;47.360;18.984;2022-12-10T08:06:02;98971.72;;;5.43;100.00
43818;BME280;29868;47.360;18.984;2022-12-10T08:08:28;98969.34;;;5.58;100.00
43818;BME280;29868;47.360;18.984;2022-12-10T08:10:53;98968.44;;;5.53;100.00
43818;BME280;29868;47.360;18.984;2022-12-10T08:13:19;98972.69;;;5.50;100.00
43818;BME280;29868;47.360;18.984;2022-12-10T08:15:44;98971.72;;;5.43;100.00
43818;BME280;29868;47.360;18.984;2022-12-10T08:18:09;98962.50;;;5.59;100.00
43818;BME280;29868;47.360;18.984;2022-12-10T08:20:35;98952.91;;;5.47;100.00
43818;BME280;29868;47.360;18.984;2022-12-10T08:23:00;98951.09;;;5.40;100.00
43818;BME280;29868;47.360;18.984;2022-12-10T08:25:25;98953.72;;;5.45;100.00
43818;BME280;29868;47.360;18.984;2022-12-10T08:27:51;98954.41;;;5.31;100.00
43818;BME280;29868;47.360;18.984;2022-12-10T08:30:16;98948.97;;;5.11;100.00
43818;BME280;29868;47.360;18.984;2022-12-10T08:32:41;98952.44;;;5.15;100.00
43818;BME280;29868;47.360;18.984;2022-12-10T08:35:06;98960.47;;;5.36;100.00
43818;BME280;29868;47.360;18.984;2022-12-10T08:37:32;98958.69;;;5.32;100.00
43818;BME280;29868;47.360;18.984;2022-12-10T08:39:57;98969.75;;;5.24;100.00
43818;BME280;29868;47.360;18.984;2022-12-10T08:42:22;98972.44;;;5.33;100.00
43818;BME280;29868;47.360;18.984;2022-12-10T08:44:47;98975.38;;;5.60;100.00
43818;BME280;29868;47.360;18.984;2022-12-10T08:47:13;98985.53;;;5.48;100.00
43818;BME280;29868;47.360;18.984;2022-12-10T08:49:38;98994.31;;;5.63;100.00
43818;BME280;29868;47.360;18.984;2022-12-10T08:52:03;98985.88;;;5.73;100.00
43818;BME280;29868;47.360;18.984;2022-12-10T08:54:28;98990.13;;;5.71;100.00
43818;BME280;29868;47.360;18.984;2022-12-10T08:56:54;98984.81;;;5.58;100.00
43818;BME280;29868;47.360;18.984;2022-12-10T08:59:19;98990.13;;;5.71;100.00
43818;BME280;29868;47.360;18.984;2022-12-10T09:01:44;98996.19;;;5.73;100.00
43818;BME280;29868;47.360;18.984;2022-12-10T09:04:09;98999.31;;;5.50;100.00
43818;BME280;29868;47.360;18.984;2022-12-10T09:06:35;98999.41;;;5.59;100.00
43818;BME280;29868;47.360;18.984;2022-12-10T09:09:00;98996.84;;;5.59;100.00
43818;BME280;29868;47.360;18.984;2022-12-10T09:11:30;99002.13;;;5.69;100.00
43818;BME280;29868;47.360;18.984;2022-12-10T09:13:55;98993.69;;;5.80;100.00
43818;BME280;29868;47.360;18.984;2022-12-10T09:16:21;99006.59;;;5.82;100.00
43818;BME280;29868;47.360;18.984;2022-12-10T09:18:51;99009.47;;;6.05;100.00
43818;BME280;29868;47.360;18.984;2022-12-10T09:21:17;98998.09;;;5.89;100.00
43818;BME280;29868;47.360;18.984;2022-12-10T09:23:42;98993.66;;;5.76;100.00
43818;BME280;29868;47.360;18.984;2022-12-10T09:26:08;98997.00;;;5.70;100.00
43818;BME280;29868;47.360;18.984;2022-12-10T09:28:34;98980.50;;;5.57;100.00
43818;BME280;29868;47.360;18.984;2022-12-10T09:31:00;98973.75;;;5.66;100.00
43818;BME280;29868;47.360;18.984;2022-12-10T09:33:26;98971.06;;;5.58;100.00
43818;BME280;29868;47.360;18.984;2022-12-10T09:35:51;98973.66;;;5.59;100.00
43818;BME280;29868;47.360;18.984;2022-12-10T09:38:16;98968.50;;;5.58;100.00
43818;BME280;29868;47.360;18.984;2022-12-10T09:40:55;98965.22;;;5.70;100.00
43818;BME280;29868;47.360;18.984;2022-12-10T09:43:25;98960.16;;;5.76;100.00
43818;BME280;29868;47.360;18.984;2022-12-10T09:48:25;98951.47;;;5.71;100.00
43818;BME280;29868;47.360;18.984;2022-12-10T09:53:19;98941.41;;;5.89;100.00
43818;BME280;29868;47.360;18.984;2022-12-10T09:55:47;98938.16;;;6.05;100.00
43818;BME280;29868;47.360;18.984;2022-12-10T09:58:14;98928.63;;;5.97;100.00
43818;BME280;29868;47.360;18.984;2022-12-10T10:00:41;98923.34;;;5.88;100.00
43818;BME280;29868;47.360;18.984;2022-12-10T10:03:09;98930.81;;;5.68;100.00
43818;BME280;29868;47.360;18.984;2022-12-10T10:05:38;98936.91;;;5.73;100.00
43818;BME280;29868;47.360;18.984;2022-12-10T10:08:06;98942.16;;;5.80;100.00
43818;BME280;29868;47.360;18.984;2022-12-10T10:10:37;98950.56;;;5.67;100.00
43818;BME280;29868;47.360;18.984;2022-12-10T10:15:32;98944.78;;;5.85;100.00
43818;BME280;29868;47.360;18.984;2022-12-10T10:17:59;98943.59;;;5.60;100.00
43818;BME280;29868;47.360;18.984;2022-12-10T10:20:26;98941.22;;;5.74;100.00
43818;BME280;29868;47.360;18.984;2022-12-10T10:22:52;98942.88;;;5.69;100.00
43818;BME280;29868;47.360;18.984;2022-12-10T10:25:26;98941.13;;;5.68;100.00
43818;BME280;29868;47.360;18.984;2022-12-10T10:27:52;98942.88;;;5.69;100.00
43818;BME280;29868;47.360;18.984;2022-12-10T10:30:18;98942.88;;;5.70;100.00
43818;BME280;29868;47.360;18.984;2022-12-10T10:32:45;98941.31;;;5.81;100.00
43818;BME280;29868;47.360;18.984;2022-12-10T10:38:08;98946.31;;;5.71;100.00
43818;BME280;29868;47.360;18.984;2022-12-10T10:40:45;98947.91;;;5.58;100.00
43818;BME280;29868;47.360;18.984;2022-12-10T10:43:15;98953.19;;;5.69;100.00
43818;BME280;29868;47.360;18.984;2022-12-10T10:45:42;98945.94;;;5.40;100.00
43818;BME280;29868;47.360;18.984;2022-12-10T10:48:16;98934.06;;;5.51;100.00
43818;BME280;29868;47.360;18.984;2022-12-10T10:50:49;98933.91;;;5.39;100.00
43818;BME280;29868;47.360;18.984;2022-12-10T10:53:22;98928.63;;;5.30;100.00
43818;BME280;29868;47.360;18.984;2022-12-10T10:55:47;98926.16;;;5.37;100.00
43818;BME280;29868;47.360;18.984;2022-12-10T10:58:19;98914.97;;;5.35;100.00
43818;BME280;29868;47.360;18.984;2022-12-10T11:00:55;98910.63;;;5.31;100.00
43818;BME280;29868;47.360;18.984;2022-12-10T11:03:20;98907.91;;;5.22;100.00
43818;BME280;29868;47.360;18.984;2022-12-10T11:05:47;98902.66;;;5.11;100.00
43818;BME280;29868;47.360;18.984;2022-12-10T11:08:16;98907.75;;;5.10;100.00
43818;BME280;29868;47.360;18.984;2022-12-10T11:10:49;98896.59;;;5.09;100.00
43818;BME280;29868;47.360;18.984;2022-12-10T11:13:33;98908.59;;;5.09;100.00
43818;BME280;29868;47.360;18.984;2022-12-10T11:19:00;98894.13;;;5.19;100.00
43818;BME280;29868;47.360;18.984;2022-12-10T11:21:30;98895.75;;;5.10;100.00
43818;BME280;29868;47.360;18.984;2022-12-10T11:23:56;98889.78;;;5.11;100.00
43818;BME280;29868;47.360;18.984;2022-12-10T11:26:28;98883.78;;;5.14;100.00
43818;BME280;29868;47.360;18.984;2022-12-10T11:36:38;98863.78;;;4.93;100.00
43818;BME280;29868;47.360;18.984;2022-12-10T11:39:14;98848.59;;;5.11;100.00
43818;BME280;29868;47.360;18.984;2022-12-10T11:41:48;98851.38;;;5.27;100.00
43818;BME280;29868;47.360;18.984;2022-12-10T11:47:08;98845.50;;;5.42;100.00
43818;BME280;29868;47.360;18.984;2022-12-10T11:49:48;98833.44;;;5.34;100.00
43818;BME280;29868;47.360;18.984;2022-12-10T12:00:08;98825.69;;;5.33;100.00
43818;BME280;29868;47.360;18.984;2022-12-10T12:05:14;98822.75;;;5.04;100.00
43818;BME280;29868;47.360;18.984;2022-12-10T12:10:33;98813.47;;;5.18;100.00
43818;BME280;29868;47.360;18.984;2022-12-10T12:13:03;98809.19;;;5.16;100.00
43818;BME280;29868;47.360;18.984;2022-12-10T12:15:34;98822.88;;;5.11;100.00
43818;BME280;29868;47.360;18.984;2022-12-10T12:18:06;98814.91;;;4.96;100.00
43818;BME280;29868;47.360;18.984;2022-12-10T12:20:37;98814.19;;;5.05;100.00
43818;BME280;29868;47.360;18.984;2022-12-10T12:23:50;98808.25;;;5.10;100.00
43818;BME280;29868;47.360;18.984;2022-12-10T12:25:55;98813.28;;;5.01;100.00
43818;BME280;29868;47.360;18.984;2022-12-10T12:28:24;98806.47;;;5.06;100.00
43818;BME280;29868;47.360;18.984;2022-12-10T12:30:53;98806.31;;;4.94;100.00
43818;BME280;29868;47.360;18.984;2022-12-10T12:33:39;98799.38;;;4.88;100.00
43818;BME280;29868;47.360;18.984;2022-12-10T12:36:08;98793.47;;;4.96;100.00
43818;BME280;29868;47.360;18.984;2022-12-10T12:38:51;98791.97;;;5.13;100.00
43818;BME280;29868;47.360;18.984;2022-12-10T12:46:35;98801.53;;;5.22;100.00
43818;BME280;29868;47.360;18.984;2022-12-10T12:49:03;98802.56;;;5.36;100.00
43818;BME280;29868;47.360;18.984;2022-12-10T12:51:39;98811.94;;;5.34;100.00
43818;BME280;29868;47.360;18.984;2022-12-10T12:54:06;98815.47;;;5.41;100.00
43818;BME280;29868;47.360;18.984;2022-12-10T13:01:49;98812.06;;;5.43;100.00
43818;BME280;29868;47.360;18.984;2022-12-10T13:04:16;98817.03;;;5.28;100.00
43818;BME280;29868;47.360;18.984;2022-12-10T13:06:41;98824.72;;;5.26;100.00
43818;BME280;29868;47.360;18.984;2022-12-10T13:16:36;98834.16;;;5.23;100.00
43818;BME280;29868;47.360;18.984;2022-12-10T13:24:17;98822.97;;;5.21;100.00
43818;BME280;29868;47.360;18.984;2022-12-10T13:29:57;98816.88;;;5.12;100.00
43818;BME280;29868;47.360;18.984;2022-12-10T13:42:40;98816.41;;;4.79;100.00
43818;BME280;29868;47.360;18.984;2022-12-10T13:45:28;98801.84;;;4.81;100.00
43818;BME280;29868;47.360;18.984;2022-12-10T13:47:55;98802.66;;;4.77;100.00
43818;BME280;29868;47.360;18.984;2022-12-10T13:50:47;98800.06;;;4.77;100.00
43818;BME280;29868;47.360;18.984;2022-12-10T14:01:00;98792.03;;;4.52;100.00
43818;BME280;29868;47.360;18.984;2022-12-10T14:06:18;98789.41;;;4.51;100.00
43818;BME280;29868;47.360;18.984;2022-12-10T14:08:55;98794.38;;;4.37;100.00
43818;BME280;29868;47.360;18.984;2022-12-10T14:11:30;98786.75;;;4.43;100.00
43818;BME280;29868;47.360;18.984;2022-12-10T14:13:56;98794.50;;;4.45;100.00
43818;BME280;29868;47.360;18.984;2022-12-10T14:16:26;98797.81;;;4.39;100.00
43818;BME280;29868;47.360;18.984;2022-12-10T14:19:01;98801.34;;;4.44;100.00
43818;BME280;29868;47.360;18.984;2022-12-10T14:21:35;98796.13;;;4.39;100.00
43818;BME280;29868;47.360;18.984;2022-12-10T14:24:01;98792.66;;;4.37;100.00
43818;BME280;29868;47.360;18.984;2022-12-10T14:26:28;98803.94;;;4.46;100.00